createdAt,value
2023-05-19T00:00:28.035Z,958.47
2023-05-19T00:01:28.026Z,958.47
2023-05-19T00:02:28.832Z,958.47
2023-05-19T00:03:28.128Z,958.47
2023-05-19T00:04:27.989Z,958.47
2023-05-19T00:05:28.066Z,958.45
2023-05-19T00:06:27.985Z,958.42
2023-05-19T00:07:27.950Z,958.46
2023-05-19T00:08:27.969Z,958.44
2023-05-19T00:09:27.930Z,958.43
2023-05-19T00:10:27.924Z,958.38
2023-05-19T00:11:27.927Z,958.39
2023-05-19T00:12:27.896Z,958.36
2023-05-19T00:13:27.919Z,958.36
2023-05-19T00:14:27.873Z,958.35
2023-05-19T00:15:27.853Z,958.36
2023-05-19T00:16:27.987Z,958.31
2023-05-19T00:17:27.878Z,958.35
2023-05-19T00:18:27.852Z,958.31
2023-05-19T00:19:28.002Z,958.34
2023-05-19T00:20:27.809Z,958.33
2023-05-19T00:21:27.783Z,958.32
2023-05-19T00:22:27.779Z,958.31
2023-05-19T00:23:27.780Z,958.30
2023-05-19T00:24:27.773Z,958.26
2023-05-19T00:25:27.774Z,958.24
2023-05-19T00:26:27.736Z,958.30
2023-05-19T00:27:27.720Z,958.26
2023-05-19T00:28:27.721Z,958.33
2023-05-19T00:29:27.735Z,958.36
2023-05-19T00:30:27.689Z,958.29
2023-05-19T00:31:27.766Z,958.33
2023-05-19T00:32:27.690Z,958.32
2023-05-19T00:33:27.706Z,958.31
2023-05-19T00:34:27.669Z,958.36
2023-05-19T00:35:27.625Z,958.31
2023-05-19T00:36:27.624Z,958.32
2023-05-19T00:37:27.613Z,958.25
2023-05-19T00:38:27.598Z,958.31
2023-05-19T00:39:27.606Z,958.26
2023-05-19T00:40:27.614Z,958.24
2023-05-19T00:41:27.578Z,958.30
2023-05-19T00:42:27.554Z,958.29
2023-05-19T00:43:27.540Z,958.26
2023-05-19T00:44:27.534Z,958.27
2023-05-19T00:45:27.523Z,958.25
2023-05-19T00:46:27.557Z,958.24
2023-05-19T00:47:27.507Z,958.20
2023-05-19T00:48:27.488Z,958.18
2023-05-19T00:49:27.506Z,958.21
2023-05-19T00:50:27.458Z,958.18
2023-05-19T00:51:27.477Z,958.22
2023-05-19T00:52:27.442Z,958.13
2023-05-19T00:53:39.419Z,958.15
2023-05-19T00:54:27.440Z,958.19
2023-05-19T00:55:27.398Z,958.15
2023-05-19T00:56:27.425Z,958.19
2023-05-19T00:57:27.393Z,958.18
2023-05-19T00:58:27.373Z,958.16
2023-05-19T00:59:27.389Z,958.18
2023-05-19T01:00:27.354Z,958.17
2023-05-19T01:01:27.427Z,958.14
2023-05-19T01:02:27.416Z,958.15
2023-05-19T01:03:27.404Z,958.14
2023-05-19T01:04:27.301Z,958.17
2023-05-19T01:05:27.289Z,958.17
2023-05-19T01:06:27.274Z,958.14
2023-05-19T01:07:27.286Z,958.18
2023-05-19T01:08:27.271Z,958.19
2023-05-19T01:09:27.239Z,958.15
2023-05-19T01:10:27.232Z,958.18
2023-05-19T01:11:27.218Z,958.13
2023-05-19T01:12:27.253Z,958.16
2023-05-19T01:13:27.207Z,958.13
2023-05-19T01:14:27.204Z,958.15
2023-05-19T01:15:27.193Z,958.16
2023-05-19T01:16:27.178Z,958.16
2023-05-19T01:17:27.191Z,958.19
2023-05-19T01:18:27.154Z,958.13
2023-05-19T01:19:27.165Z,958.17
2023-05-19T01:20:27.107Z,958.14
2023-05-19T01:21:27.111Z,958.15
2023-05-19T01:22:27.091Z,958.13
2023-05-19T01:23:27.082Z,958.10
2023-05-19T01:24:27.081Z,958.12
2023-05-19T01:25:27.059Z,958.12
2023-05-19T01:26:27.038Z,958.11
2023-05-19T01:27:27.047Z,958.11
2023-05-19T01:28:27.039Z,958.14
2023-05-19T01:29:27.058Z,958.14
2023-05-19T01:30:27.017Z,958.15
2023-05-19T01:31:27.004Z,958.11
2023-05-19T01:32:27.010Z,958.07
2023-05-19T01:33:26.966Z,958.08
2023-05-19T01:34:26.963Z,958.13
2023-05-19T01:35:26.944Z,958.10
2023-05-19T01:36:26.934Z,958.09
2023-05-19T01:37:26.924Z,958.07
2023-05-19T01:38:26.901Z,958.11
2023-05-19T01:39:26.917Z,958.12
2023-05-19T01:40:26.904Z,958.16
2023-05-19T01:41:26.874Z,958.14
2023-05-19T01:42:26.862Z,958.17
2023-05-19T01:43:26.871Z,958.17
2023-05-19T01:44:26.984Z,958.20
2023-05-19T01:45:26.852Z,958.23
2023-05-19T01:46:26.889Z,958.23
2023-05-19T01:47:26.826Z,958.18
2023-05-19T01:48:26.787Z,958.22
2023-05-19T01:49:26.800Z,958.24
2023-05-19T01:50:26.782Z,958.23
2023-05-19T01:51:26.764Z,958.22
2023-05-19T01:52:26.747Z,958.26
2023-05-19T01:53:26.747Z,958.23
2023-05-19T01:54:26.739Z,958.19
2023-05-19T01:55:26.751Z,958.23
2023-05-19T01:56:26.697Z,958.19
2023-05-19T01:57:26.718Z,958.20
2023-05-19T01:58:26.677Z,958.16
2023-05-19T01:59:26.678Z,958.16
2023-05-19T02:00:26.713Z,958.17
2023-05-19T02:01:26.694Z,958.17
2023-05-19T02:02:26.681Z,958.13
2023-05-19T02:03:26.657Z,958.08
2023-05-19T02:04:26.658Z,958.12
2023-05-19T02:05:26.607Z,958.12
2023-05-19T02:06:26.585Z,958.11
2023-05-19T02:07:26.599Z,958.15
2023-05-19T02:08:26.594Z,958.11
2023-05-19T02:09:26.560Z,958.09
2023-05-19T02:10:26.541Z,958.10
2023-05-19T02:11:26.534Z,958.10
2023-05-19T02:12:26.528Z,958.11
2023-05-19T02:13:26.534Z,958.09
2023-05-19T02:14:26.734Z,958.11
2023-05-19T02:15:26.498Z,958.13
2023-05-19T02:16:26.574Z,958.08
2023-05-19T02:17:26.485Z,958.06
2023-05-19T02:18:26.482Z,958.04
2023-05-19T02:19:26.475Z,958.05
2023-05-19T02:20:26.420Z,958.04
2023-05-19T02:21:26.438Z,958.06
2023-05-19T02:22:26.395Z,958.05
2023-05-19T02:23:26.408Z,958.03
2023-05-19T02:24:26.394Z,958.01
2023-05-19T02:25:26.375Z,958.03
2023-05-19T02:26:26.379Z,958.01
2023-05-19T02:27:26.365Z,957.99
2023-05-19T02:28:26.331Z,957.95
2023-05-19T02:29:26.331Z,957.93
2023-05-19T02:30:26.307Z,957.91
2023-05-19T02:31:26.320Z,957.96
2023-05-19T02:32:26.382Z,957.98
2023-05-19T02:33:26.292Z,957.91
2023-05-19T02:34:26.288Z,957.92
2023-05-19T02:35:26.273Z,957.94
2023-05-19T02:36:26.234Z,957.94
2023-05-19T02:37:26.227Z,957.96
2023-05-19T02:38:26.211Z,957.94
2023-05-19T02:39:26.207Z,957.96
2023-05-19T02:40:26.208Z,957.96
2023-05-19T02:41:26.179Z,957.98
2023-05-19T02:42:26.203Z,957.93
2023-05-19T02:43:26.170Z,957.96
2023-05-19T02:44:26.165Z,957.91
2023-05-19T02:45:26.138Z,957.90
2023-05-19T02:46:26.185Z,957.92
2023-05-19T02:47:26.167Z,957.86
2023-05-19T02:48:26.297Z,957.91
2023-05-19T02:49:26.093Z,957.89
2023-05-19T02:50:26.074Z,957.88
2023-05-19T02:51:26.091Z,957.87
2023-05-19T02:52:26.050Z,957.87
2023-05-19T02:53:26.054Z,957.89
2023-05-19T02:54:26.034Z,957.86
2023-05-19T02:55:26.024Z,957.84
2023-05-19T02:56:26.021Z,957.84
2023-05-19T02:57:26.000Z,957.83
2023-05-19T02:58:26.019Z,957.82
2023-05-19T02:59:25.975Z,957.79
2023-05-19T03:00:25.969Z,957.83
2023-05-19T03:01:25.966Z,957.81
2023-05-19T03:02:26.003Z,957.79
2023-05-19T03:03:26.035Z,957.76
2023-05-19T03:04:25.928Z,957.80
2023-05-19T03:05:25.910Z,957.78
2023-05-19T03:06:25.883Z,957.80
2023-05-19T03:07:25.903Z,957.81
2023-05-19T03:08:25.881Z,957.82
2023-05-19T03:09:25.879Z,957.81
2023-05-19T03:10:25.855Z,957.79
2023-05-19T03:11:25.861Z,957.83
2023-05-19T03:12:25.846Z,957.78
2023-05-19T03:13:25.817Z,957.76
2023-05-19T03:14:25.797Z,957.77
2023-05-19T03:15:25.796Z,957.79
2023-05-19T03:16:25.826Z,957.80
2023-05-19T03:17:25.901Z,957.74
2023-05-19T03:18:25.792Z,957.77
2023-05-19T03:19:25.813Z,957.76
2023-05-19T03:20:25.762Z,957.75
2023-05-19T03:21:25.798Z,957.71
2023-05-19T03:22:25.711Z,957.72
2023-05-19T03:23:25.706Z,957.74
2023-05-19T03:24:25.713Z,957.72
2023-05-19T03:25:25.682Z,957.72
2023-05-19T03:26:25.672Z,957.73
2023-05-19T03:27:25.659Z,957.71
2023-05-19T03:28:25.644Z,957.70
2023-05-19T03:29:25.662Z,957.67
2023-05-19T03:30:25.627Z,957.66
2023-05-19T03:31:25.619Z,957.65
2023-05-19T03:32:25.668Z,957.63
2023-05-19T03:33:25.655Z,957.65
2023-05-19T03:34:25.602Z,957.65
2023-05-19T03:35:25.571Z,957.67
2023-05-19T03:36:25.725Z,957.60
2023-05-19T03:37:25.550Z,957.60
2023-05-19T03:38:25.529Z,957.52
2023-05-19T03:39:25.534Z,957.53
2023-05-19T03:40:25.509Z,957.55
2023-05-19T03:41:25.528Z,957.54
2023-05-19T03:42:25.485Z,957.59
2023-05-19T03:43:25.504Z,957.58
2023-05-19T03:44:25.467Z,957.59
2023-05-19T03:45:25.465Z,957.60
2023-05-19T03:46:25.516Z,957.61
2023-05-19T03:47:25.541Z,957.60
2023-05-19T03:48:25.435Z,957.61
2023-05-19T03:49:25.422Z,957.57
2023-05-19T03:50:25.398Z,957.59
2023-05-19T03:51:25.397Z,957.59
2023-05-19T03:52:25.412Z,957.62
2023-05-19T03:53:25.365Z,957.64
2023-05-19T03:54:25.350Z,957.62
2023-05-19T03:55:26.963Z,957.67
2023-05-19T03:56:25.334Z,957.63
2023-05-19T03:57:25.347Z,957.63
2023-05-19T03:58:25.302Z,957.63
2023-05-19T03:59:25.316Z,957.62
2023-05-19T04:00:25.285Z,957.61
2023-05-19T04:01:25.281Z,957.62
2023-05-19T04:02:25.377Z,957.62
2023-05-19T04:03:25.323Z,957.62
2023-05-19T04:04:25.327Z,957.60
2023-05-19T04:05:25.238Z,957.60
2023-05-19T04:06:25.229Z,957.62
2023-05-19T04:07:25.224Z,957.57
2023-05-19T04:08:26.254Z,957.59
2023-05-19T04:09:25.182Z,957.64
2023-05-19T04:10:25.166Z,957.61
2023-05-19T04:11:25.255Z,957.59
2023-05-19T04:12:25.151Z,957.66
2023-05-19T04:13:25.136Z,957.62
2023-05-19T04:14:25.123Z,957.63
2023-05-19T04:15:25.128Z,957.66
2023-05-19T04:16:25.307Z,957.64
2023-05-19T04:17:25.167Z,957.66
2023-05-19T04:18:26.301Z,957.69
2023-05-19T04:19:25.115Z,957.69
2023-05-19T04:20:25.048Z,957.69
2023-05-19T04:21:25.070Z,957.70
2023-05-19T04:22:25.024Z,957.69
2023-05-19T04:23:25.025Z,957.67
2023-05-19T04:24:25.028Z,957.63
2023-05-19T04:25:25.023Z,957.70
2023-05-19T04:26:25.113Z,957.65
2023-05-19T04:27:25.168Z,957.74
2023-05-19T04:28:24.960Z,957.73
2023-05-19T04:29:24.975Z,957.77
2023-05-19T04:30:24.935Z,957.81
2023-05-19T04:31:24.965Z,957.75
2023-05-19T04:32:24.951Z,957.77
2023-05-19T04:33:24.904Z,957.81
2023-05-19T04:34:24.907Z,957.78
2023-05-19T04:35:24.898Z,957.81
2023-05-19T04:36:24.869Z,957.81
2023-05-19T04:37:24.857Z,957.81
2023-05-19T04:38:24.840Z,957.82
2023-05-19T04:39:24.840Z,957.78
2023-05-19T04:40:24.989Z,957.82
2023-05-19T04:41:24.827Z,957.79
2023-05-19T04:42:24.816Z,957.83
2023-05-19T04:43:24.801Z,957.81
2023-05-19T04:44:24.784Z,957.80
2023-05-19T04:45:24.787Z,957.84
2023-05-19T04:46:24.773Z,957.81
2023-05-19T04:47:24.769Z,957.79
2023-05-19T04:48:24.725Z,957.79
2023-05-19T04:49:24.727Z,957.76
2023-05-19T04:50:24.738Z,957.78
2023-05-19T04:51:24.698Z,957.75
2023-05-19T04:52:24.686Z,957.78
2023-05-19T04:53:24.677Z,957.78
2023-05-19T04:54:24.658Z,957.78
2023-05-19T04:55:24.676Z,957.78
2023-05-19T04:56:24.679Z,957.78
2023-05-19T04:57:24.645Z,957.77
2023-05-19T04:58:24.610Z,957.82
2023-05-19T04:59:24.602Z,957.84
2023-05-19T05:00:24.594Z,957.78
2023-05-19T05:01:24.651Z,957.77
2023-05-19T05:02:24.684Z,957.75
2023-05-19T05:03:24.696Z,957.78
2023-05-19T05:04:24.544Z,957.81
2023-05-19T05:05:24.553Z,957.75
2023-05-19T05:06:24.521Z,957.77
2023-05-19T05:07:24.532Z,957.76
2023-05-19T05:08:24.486Z,957.77
2023-05-19T05:09:24.481Z,957.78
2023-05-19T05:10:24.487Z,957.78
2023-05-19T05:11:24.463Z,957.74
2023-05-19T05:12:24.476Z,957.76
2023-05-19T05:13:24.468Z,957.74
2023-05-19T05:14:24.444Z,957.77
2023-05-19T05:15:24.420Z,957.77
2023-05-19T05:16:24.457Z,957.77
2023-05-19T05:17:24.461Z,957.79
2023-05-19T05:18:24.380Z,957.82
2023-05-19T05:19:24.402Z,957.78
2023-05-19T05:20:24.370Z,957.78
2023-05-19T05:21:24.366Z,957.80
2023-05-19T05:22:24.330Z,957.83
2023-05-19T05:23:24.333Z,957.79
2023-05-19T05:24:24.312Z,957.79
2023-05-19T05:25:24.310Z,957.77
2023-05-19T05:26:24.312Z,957.75
2023-05-19T05:27:24.281Z,957.74
2023-05-19T05:28:24.282Z,957.73
2023-05-19T05:29:24.250Z,957.72
2023-05-19T05:30:24.235Z,957.74
2023-05-19T05:31:24.260Z,957.76
2023-05-19T05:32:24.795Z,957.76
2023-05-19T05:33:24.384Z,957.72
2023-05-19T05:34:24.195Z,957.77
2023-05-19T05:35:24.185Z,957.72
2023-05-19T05:36:24.192Z,957.71
2023-05-19T05:37:24.160Z,957.75
2023-05-19T05:38:24.154Z,957.74
2023-05-19T05:39:24.137Z,957.73
2023-05-19T05:40:24.142Z,957.73
2023-05-19T05:41:24.148Z,957.72
2023-05-19T05:42:24.123Z,957.75
2023-05-19T05:43:24.134Z,957.76
2023-05-19T05:44:24.173Z,957.71
2023-05-19T05:45:24.085Z,957.75
2023-05-19T05:46:24.081Z,957.75
2023-05-19T05:47:24.045Z,957.73
2023-05-19T05:48:24.085Z,957.74
2023-05-19T05:49:24.042Z,957.73
2023-05-19T05:50:24.018Z,957.77
2023-05-19T05:51:23.999Z,957.74
2023-05-19T05:52:23.994Z,957.81
2023-05-19T05:53:23.976Z,957.81
2023-05-19T05:54:23.989Z,957.77
2023-05-19T05:55:23.960Z,957.83
2023-05-19T05:56:23.958Z,957.79
2023-05-19T05:57:23.956Z,957.75
2023-05-19T05:58:23.925Z,957.75
2023-05-19T05:59:23.919Z,957.76
2023-05-19T06:00:23.938Z,957.74
2023-05-19T06:01:24.001Z,957.79
2023-05-19T06:02:23.929Z,957.83
2023-05-19T06:03:23.966Z,957.85
2023-05-19T06:04:23.868Z,957.81
2023-05-19T06:05:23.910Z,957.85
2023-05-19T06:06:23.842Z,957.84
2023-05-19T06:07:23.854Z,957.83
2023-05-19T06:08:23.820Z,957.79
2023-05-19T06:09:23.817Z,957.85
2023-05-19T06:10:23.832Z,957.85
2023-05-19T06:11:23.769Z,957.85
2023-05-19T06:12:23.772Z,957.79
2023-05-19T06:13:23.785Z,957.76
2023-05-19T06:14:23.744Z,957.80
2023-05-19T06:15:23.752Z,957.77
2023-05-19T06:16:23.806Z,957.75
2023-05-19T06:17:23.705Z,957.77
2023-05-19T06:18:23.702Z,957.77
2023-05-19T06:19:23.775Z,957.73
2023-05-19T06:20:23.690Z,957.76
2023-05-19T06:21:23.702Z,957.74
2023-05-19T06:22:23.673Z,957.73
2023-05-19T06:23:23.652Z,957.74
2023-05-19T06:24:23.651Z,957.70
2023-05-19T06:25:23.617Z,957.72
2023-05-19T06:26:23.609Z,957.70
2023-05-19T06:27:23.592Z,957.71
2023-05-19T06:28:23.610Z,957.71
2023-05-19T06:29:23.570Z,957.71
2023-05-19T06:30:23.558Z,957.71
2023-05-19T06:31:23.552Z,957.73
2023-05-19T06:32:23.628Z,957.71
2023-05-19T06:33:23.780Z,957.68
2023-05-19T06:34:23.521Z,957.73
2023-05-19T06:35:23.540Z,957.71
2023-05-19T06:36:23.519Z,957.67
2023-05-19T06:37:23.478Z,957.65
2023-05-19T06:38:23.476Z,957.69
2023-05-19T06:39:23.464Z,957.70
2023-05-19T06:40:23.452Z,957.67
2023-05-19T06:41:23.570Z,957.68
2023-05-19T06:42:23.715Z,957.66
2023-05-19T06:43:23.427Z,957.68
2023-05-19T06:44:23.402Z,957.69
2023-05-19T06:45:23.440Z,957.65
2023-05-19T06:46:23.534Z,957.67
2023-05-19T06:47:23.405Z,957.69
2023-05-19T06:48:23.415Z,957.72
2023-05-19T06:49:23.342Z,957.70
2023-05-19T06:50:23.351Z,957.72
2023-05-19T06:51:23.347Z,957.71
2023-05-19T06:52:23.313Z,957.70
2023-05-19T06:53:23.289Z,957.68
2023-05-19T06:54:23.292Z,957.66
2023-05-19T06:55:23.318Z,957.72
2023-05-19T06:56:23.286Z,957.67
2023-05-19T06:57:23.249Z,957.69
2023-05-19T06:58:23.255Z,957.70
2023-05-19T06:59:23.259Z,957.68
2023-05-19T07:00:24.147Z,957.66
2023-05-19T07:01:23.242Z,957.68
2023-05-19T07:02:23.224Z,957.67
2023-05-19T07:03:23.230Z,957.68
2023-05-19T07:04:23.193Z,957.68
2023-05-19T07:05:23.219Z,957.69
2023-05-19T07:06:23.172Z,957.69
2023-05-19T07:07:23.172Z,957.69
2023-05-19T07:08:23.226Z,957.74
2023-05-19T07:09:24.044Z,957.68
2023-05-19T07:10:23.212Z,957.65
2023-05-19T07:11:23.252Z,957.62
2023-05-19T07:12:23.158Z,957.61
2023-05-19T07:13:24.801Z,957.68
2023-05-19T07:14:23.067Z,957.68
2023-05-19T07:15:23.046Z,957.64
2023-05-19T07:16:23.097Z,957.70
2023-05-19T07:17:23.049Z,957.70
2023-05-19T07:18:23.025Z,957.71
2023-05-19T07:19:23.108Z,957.68
2023-05-19T07:20:23.027Z,957.74
2023-05-19T07:21:23.016Z,957.73
2023-05-19T07:22:22.968Z,957.71
2023-05-19T07:23:23.434Z,957.70
2023-05-19T07:24:22.943Z,957.74
2023-05-19T07:25:22.981Z,957.70
2023-05-19T07:26:22.960Z,957.75
2023-05-19T07:27:22.938Z,957.75
2023-05-19T07:28:22.950Z,957.79
2023-05-19T07:29:22.879Z,957.74
2023-05-19T07:30:22.877Z,957.73
2023-05-19T07:31:22.945Z,957.76
2023-05-19T07:32:22.953Z,957.75
2023-05-19T07:33:22.967Z,957.68
2023-05-19T07:34:22.822Z,957.72
2023-05-19T07:35:22.836Z,957.70
2023-05-19T07:36:24.258Z,957.64
2023-05-19T07:37:22.804Z,957.73
2023-05-19T07:38:22.783Z,957.66
2023-05-19T07:39:22.800Z,957.66
2023-05-19T07:40:22.811Z,957.59
2023-05-19T07:41:22.754Z,957.66
2023-05-19T07:42:22.752Z,957.61
2023-05-19T07:43:22.728Z,957.57
2023-05-19T07:44:23.369Z,957.61
2023-05-19T07:45:22.722Z,957.58
2023-05-19T07:46:22.802Z,957.57
2023-05-19T07:47:22.671Z,957.56
2023-05-19T07:48:22.661Z,957.54
2023-05-19T07:49:22.654Z,957.55
2023-05-19T07:50:22.673Z,957.54
2023-05-19T07:51:22.630Z,957.49
2023-05-19T07:52:22.680Z,957.45
2023-05-19T07:53:22.692Z,957.49
2023-05-19T07:54:22.595Z,957.48
2023-05-19T07:55:22.613Z,957.48
2023-05-19T07:56:22.592Z,957.49
2023-05-19T07:57:22.591Z,957.49
2023-05-19T07:58:22.577Z,957.52
2023-05-19T07:59:22.556Z,957.52
2023-05-19T08:00:22.546Z,957.52
2023-05-19T08:01:22.539Z,957.52
2023-05-19T08:02:22.717Z,957.54
2023-05-19T08:03:22.691Z,957.54
2023-05-19T08:04:22.531Z,957.52
2023-05-19T08:05:22.488Z,957.50
2023-05-19T08:06:22.484Z,957.55
2023-05-19T08:07:22.451Z,957.49
2023-05-19T08:08:22.512Z,957.59
2023-05-19T08:09:22.439Z,957.54
2023-05-19T08:10:22.422Z,957.49
2023-05-19T08:11:22.418Z,957.51
2023-05-19T08:12:22.507Z,957.49
2023-05-19T08:13:22.369Z,957.49
2023-05-19T08:14:22.383Z,957.48
2023-05-19T08:15:22.399Z,957.50
2023-05-19T08:16:22.487Z,957.46
2023-05-19T08:17:22.375Z,957.48
2023-05-19T08:18:22.324Z,957.48
2023-05-19T08:19:22.422Z,957.47
2023-05-19T08:20:22.312Z,957.44
2023-05-19T08:21:22.297Z,957.55
2023-05-19T08:22:22.332Z,957.52
2023-05-19T08:23:22.284Z,957.49
2023-05-19T08:24:22.286Z,957.48
2023-05-19T08:25:22.253Z,957.44
2023-05-19T08:26:22.235Z,957.47
2023-05-19T08:27:22.222Z,957.42
2023-05-19T08:28:22.233Z,957.46
2023-05-19T08:29:22.200Z,957.45
2023-05-19T08:30:22.186Z,957.45
2023-05-19T08:31:22.322Z,957.52
2023-05-19T08:32:22.252Z,957.50
2023-05-19T08:33:22.212Z,957.44
2023-05-19T08:34:22.146Z,957.42
2023-05-19T08:35:22.151Z,957.37
2023-05-19T08:36:22.128Z,957.35
2023-05-19T08:37:22.119Z,957.35
2023-05-19T08:38:22.115Z,957.33
2023-05-19T08:39:22.085Z,957.33
2023-05-19T08:40:22.107Z,957.35
2023-05-19T08:41:22.087Z,957.35
2023-05-19T08:42:22.169Z,957.36
2023-05-19T08:43:22.045Z,957.36
2023-05-19T08:44:22.033Z,957.34
2023-05-19T08:45:22.019Z,957.35
2023-05-19T08:46:22.052Z,957.34
2023-05-19T08:47:22.027Z,957.34
2023-05-19T08:48:21.986Z,957.29
2023-05-19T08:49:24.183Z,957.32
2023-05-19T08:50:21.969Z,957.29
2023-05-19T08:51:22.437Z,957.31
2023-05-19T08:52:21.953Z,957.33
2023-05-19T08:53:32.456Z,957.30
2023-05-19T08:54:22.917Z,957.32
2023-05-19T08:55:21.913Z,957.27
2023-05-19T08:56:21.911Z,957.24
2023-05-19T08:57:21.872Z,957.25
2023-05-19T08:58:21.867Z,957.26
2023-05-19T08:59:21.866Z,957.27
2023-05-19T09:00:21.889Z,957.20
2023-05-19T09:01:21.856Z,957.22
2023-05-19T09:02:21.845Z,957.25
2023-05-19T09:03:23.874Z,957.24
2023-05-19T09:04:21.890Z,957.19
2023-05-19T09:05:21.842Z,957.15
2023-05-19T09:06:21.793Z,957.15
2023-05-19T09:07:21.755Z,957.20
2023-05-19T09:08:21.751Z,957.16
2023-05-19T09:09:21.731Z,957.19
2023-05-19T09:10:21.752Z,957.13
2023-05-19T09:11:21.730Z,957.15
2023-05-19T09:12:21.734Z,957.13
2023-05-19T09:13:21.684Z,957.08
2023-05-19T09:14:21.729Z,957.12
2023-05-19T09:15:21.667Z,957.15
2023-05-19T09:16:21.719Z,957.10
2023-05-19T09:17:21.668Z,957.12
2023-05-19T09:18:21.660Z,957.02
2023-05-19T09:19:21.686Z,957.08
2023-05-19T09:20:21.616Z,957.05
2023-05-19T09:21:21.610Z,957.09
2023-05-19T09:22:21.591Z,957.03
2023-05-19T09:23:21.569Z,957.06
2023-05-19T09:24:21.593Z,957.04
2023-05-19T09:25:21.572Z,957.03
2023-05-19T09:26:21.546Z,957.01
2023-05-19T09:27:21.548Z,957.04
2023-05-19T09:28:21.562Z,957.08
2023-05-19T09:29:21.509Z,957.02
2023-05-19T09:30:21.511Z,957.04
2023-05-19T09:31:21.491Z,956.97
2023-05-19T09:32:21.553Z,957.01
2023-05-19T09:33:21.497Z,957.05
2023-05-19T09:34:21.480Z,957.02
2023-05-19T09:35:21.448Z,957.03
2023-05-19T09:36:21.440Z,957.01
2023-05-19T09:37:21.413Z,956.96
2023-05-19T09:38:21.410Z,957.04
2023-05-19T09:39:21.427Z,957.03
2023-05-19T09:40:21.395Z,957.05
2023-05-19T09:41:21.366Z,957.07
2023-05-19T09:42:21.381Z,957.01
2023-05-19T09:43:21.341Z,957.04
2023-05-19T09:44:21.470Z,957.02
2023-05-19T09:45:22.481Z,957.03
2023-05-19T09:46:21.338Z,957.03
2023-05-19T09:47:21.355Z,957.01
2023-05-19T09:48:21.291Z,956.99
2023-05-19T09:49:21.298Z,956.96
2023-05-19T09:50:21.263Z,957.00
2023-05-19T09:51:21.277Z,957.02
2023-05-19T09:52:21.275Z,956.95
2023-05-19T09:53:21.235Z,956.95
2023-05-19T09:54:21.238Z,957.01
2023-05-19T09:55:21.225Z,956.93
2023-05-19T09:56:21.195Z,956.94
2023-05-19T09:57:21.194Z,956.89
2023-05-19T09:58:21.173Z,957.00
2023-05-19T09:59:21.188Z,956.93
2023-05-19T10:00:21.177Z,956.90
2023-05-19T10:01:21.220Z,956.95
2023-05-19T10:02:21.136Z,956.93
2023-05-19T10:03:21.148Z,956.93
2023-05-19T10:04:21.107Z,956.99
2023-05-19T10:05:21.137Z,956.92
2023-05-19T10:06:21.116Z,956.88
2023-05-19T10:07:21.097Z,956.84
2023-05-19T10:08:21.057Z,956.78
2023-05-19T10:09:21.071Z,956.79
2023-05-19T10:10:21.040Z,956.80
2023-05-19T10:11:21.048Z,956.81
2023-05-19T10:12:21.027Z,956.79
2023-05-19T10:13:21.023Z,956.83
2023-05-19T10:14:21.019Z,956.90
2023-05-19T10:15:29.894Z,956.85
2023-05-19T10:16:22.080Z,956.79
2023-05-19T10:17:20.960Z,956.79
2023-05-19T10:18:20.966Z,956.80
2023-05-19T10:19:23.864Z,956.78
2023-05-19T10:20:20.938Z,956.79
2023-05-19T10:21:20.945Z,956.81
2023-05-19T10:22:20.903Z,956.72
2023-05-19T10:23:20.923Z,956.75
2023-05-19T10:24:20.875Z,956.74
2023-05-19T10:25:20.881Z,956.75
2023-05-19T10:26:20.850Z,956.71
2023-05-19T10:27:20.850Z,956.73
2023-05-19T10:28:20.850Z,956.73
2023-05-19T10:29:20.854Z,956.66
2023-05-19T10:30:20.812Z,956.60
2023-05-19T10:31:20.832Z,956.65
2023-05-19T10:32:20.911Z,956.69
2023-05-19T10:33:20.850Z,956.66
2023-05-19T10:34:20.765Z,956.70
2023-05-19T10:35:20.784Z,956.68
2023-05-19T10:36:20.740Z,956.66
2023-05-19T10:37:20.735Z,956.61
2023-05-19T10:38:20.746Z,956.59
2023-05-19T10:39:20.712Z,956.54
2023-05-19T10:40:20.693Z,956.50
2023-05-19T10:41:20.691Z,956.59
2023-05-19T10:42:20.674Z,956.55
2023-05-19T10:43:20.690Z,956.59
2023-05-19T10:44:20.652Z,956.67
2023-05-19T10:45:20.656Z,956.65
2023-05-19T10:46:20.683Z,956.58
2023-05-19T10:47:20.671Z,956.58
2023-05-19T10:48:20.654Z,956.63
2023-05-19T10:49:20.598Z,956.62
2023-05-19T10:50:20.604Z,956.64
2023-05-19T10:51:20.592Z,956.64
2023-05-19T10:52:20.562Z,956.63
2023-05-19T10:53:20.555Z,956.68
2023-05-19T10:54:20.543Z,956.68
2023-05-19T10:55:20.556Z,956.63
2023-05-19T10:56:20.518Z,956.63
2023-05-19T10:57:20.547Z,956.55
2023-05-19T10:58:20.491Z,956.55
2023-05-19T10:59:20.492Z,956.62
2023-05-19T11:00:20.468Z,956.56
2023-05-19T11:01:20.475Z,956.56
2023-05-19T11:02:20.581Z,956.59
2023-05-19T11:03:20.451Z,956.51
2023-05-19T11:04:20.479Z,956.56
2023-05-19T11:05:20.445Z,956.60
2023-05-19T11:06:20.404Z,956.58
2023-05-19T11:07:20.423Z,956.60
2023-05-19T11:08:20.416Z,956.59
2023-05-19T11:09:31.099Z,956.59
2023-05-19T11:10:21.623Z,956.63
2023-05-19T11:11:20.352Z,956.66
2023-05-19T11:12:20.341Z,956.75
2023-05-19T11:13:20.360Z,956.72
2023-05-19T11:14:20.315Z,956.76
2023-05-19T11:15:20.318Z,956.67
2023-05-19T11:16:20.301Z,956.70
2023-05-19T11:17:20.300Z,956.66
2023-05-19T11:18:20.272Z,956.64
2023-05-19T11:19:20.337Z,956.62
2023-05-19T11:20:20.264Z,956.60
2023-05-19T11:21:20.312Z,956.58
2023-05-19T11:22:20.220Z,956.59
2023-05-19T11:23:20.294Z,956.58
2023-05-19T11:24:20.208Z,956.59
2023-05-19T11:25:20.192Z,956.60
2023-05-19T11:26:20.200Z,956.63
2023-05-19T11:27:20.217Z,956.60
2023-05-19T11:28:20.291Z,956.62
2023-05-19T11:29:20.155Z,956.61
2023-05-19T11:30:20.276Z,956.65
2023-05-19T11:31:20.141Z,956.61
2023-05-19T11:32:20.247Z,956.56
2023-05-19T11:33:20.201Z,956.57
2023-05-19T11:34:20.083Z,956.59
2023-05-19T11:35:20.078Z,956.58
2023-05-19T11:36:20.151Z,956.58
2023-05-19T11:37:20.052Z,956.60
2023-05-19T11:38:20.054Z,956.59
2023-05-19T11:39:20.068Z,956.54
2023-05-19T11:40:20.018Z,956.54
2023-05-19T11:41:20.882Z,956.57
2023-05-19T11:42:20.002Z,956.57
2023-05-19T11:43:19.986Z,956.61
2023-05-19T11:44:19.966Z,956.55
2023-05-19T11:45:19.983Z,956.47
2023-05-19T11:46:20.025Z,956.55
2023-05-19T11:47:19.941Z,956.53
2023-05-19T11:48:19.948Z,956.48
2023-05-19T11:49:19.927Z,956.52
2023-05-19T11:50:19.922Z,956.49
2023-05-19T11:51:19.914Z,956.49
2023-05-19T11:52:20.441Z,956.53
2023-05-19T11:53:20.117Z,956.61
2023-05-19T11:54:19.904Z,956.55
2023-05-19T11:55:19.887Z,956.56
2023-05-19T11:56:22.402Z,956.47
2023-05-19T11:57:19.846Z,956.48
2023-05-19T11:58:19.811Z,956.54
2023-05-19T11:59:19.814Z,956.50
2023-05-19T12:00:19.784Z,956.60
2023-05-19T12:01:19.793Z,956.51
2023-05-19T12:02:19.827Z,956.43
2023-05-19T12:03:19.810Z,956.48
2023-05-19T12:04:19.735Z,956.53
2023-05-19T12:05:19.808Z,956.38
2023-05-19T12:06:19.823Z,956.47
2023-05-19T12:07:19.712Z,956.47
2023-05-19T12:08:19.711Z,956.54
2023-05-19T12:09:19.688Z,956.48
2023-05-19T12:10:19.689Z,956.44
2023-05-19T12:11:20.116Z,956.45
2023-05-19T12:12:19.690Z,956.42
2023-05-19T12:13:19.660Z,956.36
2023-05-19T12:14:19.628Z,956.28
2023-05-19T12:15:19.648Z,956.35
2023-05-19T12:16:19.665Z,956.43
2023-05-19T12:17:19.599Z,956.33
2023-05-19T12:18:19.580Z,956.42
2023-05-19T12:19:19.628Z,956.31
2023-05-19T12:20:19.586Z,956.39
2023-05-19T12:21:19.553Z,956.35
2023-05-19T12:22:19.540Z,956.29
2023-05-19T12:23:19.552Z,956.36
2023-05-19T12:24:19.551Z,956.38
2023-05-19T12:25:19.547Z,956.50
2023-05-19T12:26:19.485Z,956.42
2023-05-19T12:27:19.518Z,956.39
2023-05-19T12:28:19.489Z,956.34